createdAt,value
2019-02-23T00:00:26.751Z,-3.39
2019-02-23T00:03:56.791Z,-3.39
2019-02-23T00:07:26.843Z,-3.5
2019-02-23T00:10:56.815Z,-3.47
2019-02-23T00:14:26.797Z,-3.56
2019-02-23T00:17:56.759Z,-3.7
2019-02-23T00:21:26.882Z,-3.8
2019-02-23T00:24:56.843Z,-3.78
2019-02-23T00:28:26.955Z,-3.93
2019-02-23T00:31:57.011Z,-3.97
2019-02-23T00:35:27.100Z,-3.95
2019-02-23T00:38:57.142Z,-3.92
2019-02-23T00:42:27.155Z,-3.84
2019-02-23T00:45:57.217Z,-3.78
2019-02-23T00:49:35.956Z,-3.88
2019-02-23T00:53:06.791Z,-3.87
2019-02-23T00:56:36.932Z,-4
2019-02-23T01:00:08.694Z,-4.01
2019-02-23T01:03:39.148Z,-4.01
2019-02-23T01:07:09.225Z,-4.08
2019-02-23T01:10:39.271Z,-4.19
2019-02-23T01:14:09.314Z,-4.29
2019-02-23T01:17:39.405Z,-4.14
2019-02-23T01:21:09.474Z,-4.24
2019-02-23T01:24:39.609Z,-4.22
2019-02-23T01:28:09.672Z,-4.31
2019-02-23T01:31:39.654Z,-4.25
2019-02-23T01:35:09.747Z,-4.45
2019-02-23T01:38:39.848Z,-4.56
2019-02-23T01:42:09.860Z,-4.46
2019-02-23T01:45:42.633Z,-4.49
2019-02-23T01:49:12.895Z,-4.51
2019-02-23T01:52:43.017Z,-4.6
2019-02-23T01:55:08.056Z,-4.63
2019-02-23T01:58:39.129Z,-4.7
2019-02-23T02:00:16.089Z,-4.71
2019-02-23T02:03:46.229Z,-4.73
2019-02-23T02:07:16.451Z,-4.73
2019-02-23T02:10:46.442Z,-4.79
2019-02-23T02:14:16.454Z,-4.73
2019-02-23T02:17:46.546Z,-4.83
2019-02-23T02:21:16.518Z,-4.8
2019-02-23T02:24:46.600Z,-4.8
2019-02-23T02:28:16.667Z,-4.81
2019-02-23T02:31:46.825Z,-4.93
2019-02-23T02:35:16.847Z,-4.95
2019-02-23T02:38:46.889Z,-5.1
2019-02-23T02:42:16.922Z,-5.11
2019-02-23T02:45:46.973Z,-5.15
2019-02-23T02:49:17.385Z,-5.28
2019-02-23T02:52:47.438Z,-5.17
2019-02-23T02:56:17.559Z,-5.24
2019-02-23T02:59:48.631Z,-5.27
2019-02-23T03:03:18.676Z,-5.09
2019-02-23T03:06:48.725Z,-4.99
2019-02-23T03:10:18.795Z,-4.91
2019-02-23T03:13:48.959Z,-4.77
2019-02-23T03:17:19.053Z,-4.77
2019-02-23T03:20:49.112Z,-4.69
2019-02-23T03:24:19.236Z,-4.75
2019-02-23T03:27:49.228Z,-4.65
2019-02-23T03:31:19.291Z,-4.67
2019-02-23T03:34:49.282Z,-4.77
2019-02-23T03:38:19.394Z,-4.79
2019-02-23T03:41:49.427Z,-4.8
2019-02-23T03:45:19.408Z,-4.81
2019-02-23T03:48:49.440Z,-4.78
2019-02-23T03:52:19.414Z,-4.77
2019-02-23T03:55:49.465Z,-4.88
2019-02-23T03:59:19.553Z,-4.76
2019-02-23T04:00:16.957Z,-4.76
2019-02-23T04:03:46.929Z,-4.84
2019-02-23T04:07:17.143Z,-4.84
2019-02-23T04:10:47.213Z,-4.89
2019-02-23T04:14:17.325Z,-4.87
2019-02-23T04:17:47.398Z,-4.91
2019-02-23T04:21:17.392Z,-4.9
2019-02-23T04:24:47.452Z,-5.05
2019-02-23T04:28:17.414Z,-5.07
2019-02-23T04:31:47.403Z,-5.1
2019-02-23T04:35:17.468Z,-4.98
2019-02-23T04:38:47.611Z,-5.03
2019-02-23T04:42:17.724Z,-5.02
2019-02-23T04:45:47.888Z,-4.92
2019-02-23T04:49:17.911Z,-4.99
2019-02-23T04:52:47.878Z,-5.03
2019-02-23T04:56:17.891Z,-4.97
2019-02-23T04:59:47.913Z,-5.14
2019-02-23T05:03:18.996Z,-5.16
2019-02-23T05:06:49.028Z,-5.14
2019-02-23T05:10:18.979Z,-5.1
2019-02-23T05:13:49.061Z,-5.13
2019-02-23T05:17:19.300Z,-5.11
2019-02-23T05:20:49.425Z,-5.16
2019-02-23T05:24:19.360Z,-5.1
2019-02-23T05:27:49.439Z,-5.1
2019-02-23T05:31:22.103Z,-5.02
2019-02-23T05:34:52.451Z,-5.06
2019-02-23T05:38:22.490Z,-5.01
2019-02-23T05:41:52.488Z,-4.99
2019-02-23T05:45:22.459Z,-5.03
2019-02-23T05:48:52.503Z,-5.05
2019-02-23T05:52:22.554Z,-5.09
2019-02-23T05:55:52.656Z,-5.08
2019-02-23T05:59:22.778Z,-5.01
2019-02-23T06:00:16.549Z,-5
2019-02-23T06:03:47.701Z,-5.01
2019-02-23T06:07:17.773Z,-4.93
2019-02-23T06:10:47.905Z,-5.03
2019-02-23T06:14:17.881Z,-5.12
2019-02-23T06:17:47.940Z,-4.95
2019-02-23T06:21:18.018Z,-4.83
2019-02-23T06:24:48.193Z,-4.84
2019-02-23T06:28:18.275Z,-4.97
2019-02-23T06:31:48.259Z,-4.91
2019-02-23T06:35:18.189Z,-4.86
2019-02-23T06:38:48.522Z,-4.96
2019-02-23T06:42:18.443Z,-4.82
2019-02-23T06:45:48.527Z,-4.87
2019-02-23T06:49:18.707Z,-4.74
2019-02-23T06:52:48.829Z,-4.48
2019-02-23T06:56:18.882Z,-4.41
2019-02-23T06:59:48.955Z,-4.47
2019-02-23T07:03:18.916Z,-4.4
2019-02-23T07:06:50.068Z,-4.35
2019-02-23T07:10:20.120Z,-4.33
2019-02-23T07:13:50.192Z,-4.14
2019-02-23T07:17:20.225Z,-4.12
2019-02-23T07:20:50.427Z,-3.88
2019-02-23T07:24:20.468Z,-3.96
2019-02-23T07:27:50.610Z,-3.87
2019-02-23T07:31:20.823Z,-3.72
2019-02-23T07:34:50.966Z,-3.66
2019-02-23T07:38:21.039Z,-3.51
2019-02-23T07:41:51.112Z,-3.67
2019-02-23T07:45:21.191Z,-3.49
2019-02-23T07:48:51.180Z,-3.68
2019-02-23T07:52:26.322Z,-3.55
2019-02-23T07:55:56.948Z,-3.55
2019-02-23T07:59:27.010Z,-3.3
2019-02-23T08:00:16.707Z,-3.31
2019-02-23T08:03:47.093Z,-3.01
2019-02-23T08:07:18.085Z,-2.74
2019-02-23T08:10:48.173Z,-2.93
2019-02-23T08:14:18.249Z,-3.18
2019-02-23T08:17:48.412Z,-3.15
2019-02-23T08:21:18.471Z,-3.32
2019-02-23T08:24:48.585Z,-3.03
2019-02-23T08:28:18.670Z,-3.16
2019-02-23T08:31:48.670Z,-3.14
2019-02-23T08:35:18.592Z,-3.13
2019-02-23T08:38:48.754Z,-2.92
2019-02-23T08:42:18.660Z,-2.89
2019-02-23T08:45:48.738Z,-2.89
2019-02-23T08:49:18.671Z,-2.63
2019-02-23T08:52:50.250Z,-2.36
2019-02-23T08:56:20.575Z,-2.03
2019-02-23T08:59:50.647Z,-1.94
2019-02-23T09:03:20.709Z,-2.27
2019-02-23T09:06:50.791Z,-2.55
2019-02-23T09:10:21.885Z,-2.56
2019-02-23T09:13:51.926Z,-2.36
2019-02-23T09:17:21.919Z,-1.87
2019-02-23T09:20:52.099Z,-1.92
2019-02-23T09:24:22.203Z,-2.06
2019-02-23T09:27:52.345Z,-2.22
2019-02-23T09:31:22.508Z,-1.95
2019-02-23T09:34:52.531Z,-1.77
2019-02-23T09:38:22.582Z,-1.62
2019-02-23T09:41:52.824Z,-1.64
2019-02-23T09:45:22.842Z,-1.38
2019-02-23T09:48:52.868Z,-1.5
2019-02-23T09:52:22.910Z,-1.8
2019-02-23T09:55:52.903Z,-2.35
2019-02-23T09:59:23.055Z,-2.27
2019-02-23T10:00:16.747Z,-2.33
2019-02-23T10:03:46.918Z,-2.18
2019-02-23T10:07:16.935Z,-2.27
2019-02-23T10:10:47.842Z,-1.95
2019-02-23T10:14:17.924Z,-1.82
2019-02-23T10:17:47.956Z,-2.19
2019-02-23T10:21:17.959Z,-2.2
2019-02-23T10:24:48.061Z,-2.24
2019-02-23T10:28:17.998Z,-2.33
2019-02-23T10:31:48.025Z,-2.42
2019-02-23T10:35:18.108Z,-2.09
2019-02-23T10:38:48.259Z,-1.7
2019-02-23T10:42:18.432Z,-1.51
2019-02-23T10:45:48.395Z,-1.33
2019-02-23T10:49:18.416Z,-1.17
2019-02-23T10:52:48.479Z,-1.44
2019-02-23T10:56:18.531Z,-1.51
2019-02-23T10:59:48.663Z,-0.98
2019-02-23T11:03:18.728Z,-0.77
2019-02-23T11:06:49.047Z,-0.54
2019-02-23T11:10:19.309Z,-0.32
2019-02-23T11:13:49.483Z,-0.55
2019-02-23T11:17:19.515Z,-0.62
2019-02-23T11:20:49.657Z,-0.17
2019-02-23T11:24:19.679Z,-0.54
2019-02-23T11:27:49.801Z,-0.23
2019-02-23T11:31:19.854Z,-0.51
2019-02-23T11:34:49.886Z,-0.19
2019-02-23T11:38:19.918Z,-0.24
2019-02-23T11:41:50.060Z,-0.42
2019-02-23T11:45:20.066Z,-0.55
2019-02-23T11:48:50.175Z,-1.33
2019-02-23T11:52:20.258Z,-1.05
2019-02-23T11:55:50.330Z,-1.55
2019-02-23T11:59:20.323Z,-2.05
2019-02-23T12:00:16.982Z,-2.27
2019-02-23T12:03:47.155Z,-1.77
2019-02-23T12:07:17.209Z,-1.74
2019-02-23T12:10:47.309Z,-1.91
2019-02-23T12:14:18.391Z,-2.07
2019-02-23T12:17:48.524Z,-2.22
2019-02-23T12:21:18.686Z,-1.62
2019-02-23T12:24:48.808Z,-1.32
2019-02-23T12:28:18.814Z,-1.5
2019-02-23T12:31:48.909Z,-0.9
2019-02-23T12:35:18.933Z,-1.45
2019-02-23T12:38:49.082Z,-1.2
2019-02-23T12:42:19.168Z,-0.95
2019-02-23T12:45:49.211Z,-1.01
2019-02-23T12:49:19.189Z,-1.02
2019-02-23T12:52:49.240Z,-0.81
2019-02-23T12:56:19.181Z,-0.8
2019-02-23T12:59:49.294Z,-0.72
2019-02-23T13:03:19.322Z,-0.97
2019-02-23T13:06:49.444Z,-1.11
2019-02-23T13:10:19.491Z,-1.59
2019-02-23T13:14:05.236Z,-1.33
2019-02-23T13:18:39.218Z,-1.04
2019-02-23T13:22:27.438Z,-1.19
2019-02-23T13:26:07.299Z,-1.15
2019-02-23T13:29:52.591Z,-1.04
2019-02-23T13:33:39.193Z,-1.3
2019-02-23T13:37:17.453Z,-1.67
2019-02-23T13:41:31.544Z,-1.99
2019-02-23T13:46:48.567Z,-1.74
2019-02-23T13:53:33.438Z,-1.97
2019-02-23T13:57:14.945Z,-1.91
2019-02-23T14:01:05.170Z,-1.54
2019-02-23T14:04:47.283Z,-1.49
2019-02-23T14:08:49.662Z,-1.77
2019-02-23T14:12:30.734Z,-2.28
2019-02-23T14:17:39.404Z,-2.38
2019-02-23T14:21:26.565Z,-2.26
2019-02-23T14:25:13.367Z,-2.55
2019-02-23T14:28:52.177Z,-2.83
2019-02-23T14:34:52.619Z,-2.9
2019-02-23T14:41:36.782Z,-2.71
2019-02-23T14:47:35.182Z,-3.09
2019-02-23T14:57:11.258Z,-2.98
2019-02-23T15:01:02.446Z,-2.47
2019-02-23T15:08:33.358Z,-2.39
2019-02-23T15:14:55.459Z,-2.55
2019-02-23T15:18:39.831Z,-2.7
2019-02-23T15:22:40.503Z,-2.99
2019-02-23T15:26:28.163Z,-3.06
2019-02-23T15:30:21.025Z,-2.9
2019-02-23T15:35:09.706Z,-2.92
2019-02-23T15:41:16.647Z,-2.85
2019-02-23T15:46:07.815Z,-2.82
2019-02-23T15:49:37.997Z,-3.05
2019-02-23T15:53:08.122Z,-3.09
2019-02-23T15:56:38.115Z,-3.01
2019-02-23T16:00:13.602Z,-3.03
2019-02-23T16:03:43.734Z,-3.28
2019-02-23T16:07:13.824Z,-3.36
2019-02-23T16:10:43.860Z,-3.47
2019-02-23T16:14:13.876Z,-3.3
2019-02-23T16:17:44.018Z,-3.15
2019-02-23T16:21:14.071Z,-3.17
2019-02-23T16:24:44.209Z,-3.16
2019-02-23T16:28:14.260Z,-3.05
2019-02-23T16:31:44.308Z,-2.94
2019-02-23T16:35:14.324Z,-3.19
2019-02-23T16:38:44.533Z,-3.08
2019-02-23T16:42:14.634Z,-3.03
2019-02-23T16:45:44.762Z,-2.98
2019-02-23T16:49:14.909Z,-2.83
2019-02-23T16:52:44.957Z,-2.7
2019-02-23T16:56:15.037Z,-2.84
2019-02-23T16:59:45.178Z,-2.8
2019-02-23T17:03:15.173Z,-2.79
2019-02-23T17:06:45.191Z,-2.88
2019-02-23T17:10:15.202Z,-2.78
2019-02-23T17:13:45.223Z,-2.78
2019-02-23T17:17:15.303Z,-2.82
2019-02-23T17:20:45.274Z,-2.92
2019-02-23T17:24:15.315Z,-2.74
2019-02-23T17:27:46.457Z,-2.77
2019-02-23T17:31:16.409Z,-2.99
2019-02-23T17:34:46.438Z,-2.92
2019-02-23T17:38:16.639Z,-2.86
2019-02-23T17:41:46.770Z,-2.88
2019-02-23T17:45:16.833Z,-2.91
2019-02-23T17:48:46.892Z,-2.83
2019-02-23T17:52:16.953Z,-2.86
2019-02-23T17:55:47.062Z,-2.92
2019-02-23T17:59:17.069Z,-3.01
2019-02-23T18:00:18.705Z,-3.01
2019-02-23T18:03:48.827Z,-2.96
2019-02-23T18:07:18.927Z,-2.95
2019-02-23T18:10:49.118Z,-2.98
2019-02-23T18:14:19.139Z,-2.83
2019-02-23T18:17:49.174Z,-2.8
2019-02-23T18:21:19.205Z,-2.68
2019-02-23T18:24:49.142Z,-2.74
2019-02-23T18:28:20.076Z,-2.86
2019-02-23T18:31:50.124Z,-3.04
2019-02-23T18:35:20.130Z,-3.05
2019-02-23T18:38:50.196Z,-2.97
2019-02-23T18:42:20.177Z,-3.09
2019-02-23T18:45:50.419Z,-3.49
2019-02-23T18:49:20.368Z,-3.4
2019-02-23T18:52:50.545Z,-3.59
2019-02-23T18:56:20.620Z,-3.44
2019-02-23T18:59:50.791Z,-3.3
2019-02-23T19:03:20.865Z,-3.4
2019-02-23T19:06:50.983Z,-3.32
2019-02-23T19:10:21.074Z,-3.39
2019-02-23T19:13:50.966Z,-3.35
2019-02-23T19:17:20.946Z,-3.25
2019-02-23T19:20:51.023Z,-3.23
2019-02-23T19:24:21.098Z,-3.12
2019-02-23T19:27:51.157Z,-3.18
2019-02-23T19:31:22.190Z,-3.12
2019-02-23T19:34:52.259Z,-3.2
2019-02-23T19:38:22.232Z,-3.16
2019-02-23T19:41:52.372Z,-3.28
2019-02-23T19:45:22.375Z,-3.43
2019-02-23T19:48:52.434Z,-3.49
2019-02-23T19:52:22.475Z,-3.54
2019-02-23T19:55:52.534Z,-3.65
2019-02-23T19:59:22.577Z,-3.64
2019-02-23T20:00:16.377Z,-3.65
2019-02-23T20:03:46.459Z,-3.56
2019-02-23T20:07:16.419Z,-3.54
2019-02-23T20:10:46.522Z,-3.56
2019-02-23T20:14:16.501Z,-3.57
2019-02-23T20:17:46.672Z,-3.55
2019-02-23T20:21:16.703Z,-3.47
2019-02-23T20:24:46.794Z,-3.5
2019-02-23T20:28:16.796Z,-3.54
2019-02-23T20:31:47.846Z,-3.73
2019-02-23T20:35:17.937Z,-3.69
2019-02-23T20:38:47.967Z,-3.67
2019-02-23T20:42:17.999Z,-3.75
2019-02-23T20:45:48.065Z,-3.78
2019-02-23T20:49:18.161Z,-3.76
2019-02-23T20:52:48.232Z,-3.92
2019-02-23T20:56:18.293Z,-3.86
2019-02-23T20:59:48.353Z,-3.88
2019-02-23T21:03:18.405Z,-3.98
2019-02-23T21:06:48.445Z,-4.16
2019-02-23T21:10:18.497Z,-4.28
2019-02-23T21:13:48.627Z,-4.34
2019-02-23T21:17:18.568Z,-4.35
2019-02-23T21:20:48.698Z,-4.36
2019-02-23T21:24:18.780Z,-4.34
2019-02-23T21:27:48.852Z,-4.31
2019-02-23T21:31:18.971Z,-4.35
2019-02-23T21:34:49.970Z,-4.37
2019-02-23T21:38:19.913Z,-4.46
2019-02-23T21:41:50.005Z,-4.6
2019-02-23T21:45:20.135Z,-4.59
2019-02-23T21:48:50.354Z,-4.62
2019-02-23T21:52:20.315Z,-4.57
2019-02-23T21:55:50.378Z,-4.58
2019-02-23T21:59:20.491Z,-4.57
2019-02-23T22:00:16.869Z,-4.58
2019-02-23T22:03:46.991Z,-4.71
2019-02-23T22:07:17.071Z,-4.77
2019-02-23T22:10:47.124Z,-4.74
2019-02-23T22:14:17.123Z,-4.74
2019-02-23T22:17:47.110Z,-4.89
2019-02-23T22:21:17.165Z,-4.92
2019-02-23T22:24:47.236Z,-4.95
2019-02-23T22:28:17.299Z,-4.84
2019-02-23T22:31:47.378Z,-4.99
2019-02-23T22:35:19.081Z,-4.93
2019-02-23T22:38:49.149Z,-4.95
2019-02-23T22:42:19.169Z,-5.06
2019-02-23T22:45:49.163Z,-4.99
2019-02-23T22:49:19.151Z,-5
2019-02-23T22:52:49.242Z,-4.96
2019-02-23T22:56:19.373Z,-5.02
2019-02-23T22:59:49.584Z,-4.98
2019-02-23T23:03:19.975Z,-4.96
2019-02-23T23:06:50.038Z,-4.93
2019-02-23T23:10:20.097Z,-5.1
2019-02-23T23:13:50.123Z,-5.02
2019-02-23T23:17:20.158Z,-5.19
2019-02-23T23:20:50.200Z,-5.21
2019-02-23T23:24:20.250Z,-5.42
2019-02-23T23:27:50.401Z,-5.38
2019-02-23T23:31:20.422Z,-5.52
2019-02-23T23:34:50.466Z,-5.68
2019-02-23T23:38:21.433Z,-5.67
2019-02-23T23:41:51.475Z,-5.71
2019-02-23T23:45:21.515Z,-5.79
2019-02-23T23:48:51.613Z,-5.67
2019-02-23T23:52:21.687Z,-5.71
2019-02-23T23:55:51.807Z,-5.7
2019-02-23T23:59:21.818Z,-5.74
